sensor_id;sensor_type;location;lat;lon;timestamp;temperature;humidity
12845;DHT22;6489;48.508;9.206;2023-02-20T00:02:50;18.90;99.90
12845;DHT22;6489;48.508;9.206;2023-02-20T00:06:12;18.90;99.90
12845;DHT22;6489;48.508;9.206;2023-02-20T00:09:35;18.90;99.90
12845;DHT22;6489;48.508;9.206;2023-02-20T00:12:57;18.90;99.90
12845;DHT22;6489;48.508;9.206;2023-02-20T00:16:19;18.90;99.90
12845;DHT22;6489;48.508;9.206;2023-02-20T00:19:41;18.90;99.90
12845;DHT22;6489;48.508;9.206;2023-02-20T00:23:03;18.90;99.90
12845;DHT22;6489;48.508;9.206;2023-02-20T00:26:26;18.90;99.90
12845;DHT22;6489;48.508;9.206;2023-02-20T00:29:48;18.90;99.90
12845;DHT22;6489;48.508;9.206;2023-02-20T00:33:10;18.90;99.90
12845;DHT22;6489;48.508;9.206;2023-02-20T00:36:31;18.90;99.90
12845;DHT22;6489;48.508;9.206;2023-02-20T00:39:53;18.90;99.90
12845;DHT22;6489;48.508;9.206;2023-02-20T00:43:16;18.90;99.90
12845;DHT22;6489;48.508;9.206;2023-02-20T00:46:38;18.90;99.90
12845;DHT22;6489;48.508;9.206;2023-02-20T00:50:00;18.90;99.90
12845;DHT22;6489;48.508;9.206;2023-02-20T00:53:22;18.90;99.90
12845;DHT22;6489;48.508;9.206;2023-02-20T00:56:44;18.90;99.90
12845;DHT22;6489;48.508;9.206;2023-02-20T01:00:15;18.90;99.90
12845;DHT22;6489;48.508;9.206;2023-02-20T01:03:37;18.90;99.90
12845;DHT22;6489;48.508;9.206;2023-02-20T01:06:59;18.80;99.90
12845;DHT22;6489;48.508;9.206;2023-02-20T01:10:21;18.80;99.90
12845;DHT22;6489;48.508;9.206;2023-02-20T01:13:42;18.90;99.90
12845;DHT22;6489;48.508;9.206;2023-02-20T01:17:06;18.90;99.90
12845;DHT22;6489;48.508;9.206;2023-02-20T01:20:28;18.90;99.90
12845;DHT22;6489;48.508;9.206;2023-02-20T01:23:50;18.90;99.90
12845;DHT22;6489;48.508;9.206;2023-02-20T01:27:12;18.90;99.90
12845;DHT22;6489;48.508;9.206;2023-02-20T01:30:34;18.90;99.90
12845;DHT22;6489;48.508;9.206;2023-02-20T01:33:57;18.90;99.90
12845;DHT22;6489;48.508;9.206;2023-02-20T01:37:19;18.90;99.90
12845;DHT22;6489;48.508;9.206;2023-02-20T01:40:46;18.90;99.90
12845;DHT22;6489;48.508;9.206;2023-02-20T01:44:18;18.90;99.90
12845;DHT22;6489;48.508;9.206;2023-02-20T01:47:40;18.90;99.90
12845;DHT22;6489;48.508;9.206;2023-02-20T01:51:03;18.90;99.90
12845;DHT22;6489;48.508;9.206;2023-02-20T01:54:26;18.90;99.90
12845;DHT22;6489;48.508;9.206;2023-02-20T01:57:50;18.90;99.90
12845;DHT22;6489;48.508;9.206;2023-02-20T02:01:13;18.90;99.90
12845;DHT22;6489;48.508;9.206;2023-02-20T02:04:35;18.90;99.90
12845;DHT22;6489;48.508;9.206;2023-02-20T02:08:02;18.90;99.90
12845;DHT22;6489;48.508;9.206;2023-02-20T02:11:26;18.90;99.90
12845;DHT22;6489;48.508;9.206;2023-02-20T02:14:48;18.80;99.90
12845;DHT22;6489;48.508;9.206;2023-02-20T02:18:24;18.90;99.90
12845;DHT22;6489;48.508;9.206;2023-02-20T02:22:16;18.80;99.90
12845;DHT22;6489;48.508;9.206;2023-02-20T02:25:50;18.80;99.90
12845;DHT22;6489;48.508;9.206;2023-02-20T02:29:41;18.90;99.90
12845;DHT22;6489;48.508;9.206;2023-02-20T02:37:14;18.80;99.90
12845;DHT22;6489;48.508;9.206;2023-02-20T02:40:42;18.90;99.90
12845;DHT22;6489;48.508;9.206;2023-02-20T02:44:10;18.80;99.90
12845;DHT22;6489;48.508;9.206;2023-02-20T02:47:40;18.80;99.90
12845;DHT22;6489;48.508;9.206;2023-02-20T02:51:10;18.80;99.90
12845;DHT22;6489;48.508;9.206;2023-02-20T02:54:35;18.80;99.90
12845;DHT22;6489;48.508;9.206;2023-02-20T02:57:57;18.80;99.90
12845;DHT22;6489;48.508;9.206;2023-02-20T03:01:19;18.80;99.90
12845;DHT22;6489;48.508;9.206;2023-02-20T03:04:43;18.90;99.90
12845;DHT22;6489;48.508;9.206;2023-02-20T03:08:07;18.80;99.90
12845;DHT22;6489;48.508;9.206;2023-02-20T03:11:35;18.90;99.90
12845;DHT22;6489;48.508;9.206;2023-02-20T03:15:01;18.80;99.90
12845;DHT22;6489;48.508;9.206;2023-02-20T03:18:41;18.80;99.90
12845;DHT22;6489;48.508;9.206;2023-02-20T03:22:08;18.80;99.90
12845;DHT22;6489;48.508;9.206;2023-02-20T03:25:34;18.70;99.90
12845;DHT22;6489;48.508;9.206;2023-02-20T03:29:02;18.80;99.90
12845;DHT22;6489;48.508;9.206;2023-02-20T03:32:28;18.80;99.90
12845;DHT22;6489;48.508;9.206;2023-02-20T03:36:12;18.80;99.90
12845;DHT22;6489;48.508;9.206;2023-02-20T03:39:57;18.80;99.90
12845;DHT22;6489;48.508;9.206;2023-02-20T03:43:38;18.80;99.90
12845;DHT22;6489;48.508;9.206;2023-02-20T03:47:04;18.80;99.90
12845;DHT22;6489;48.508;9.206;2023-02-20T03:50:27;18.80;99.90
12845;DHT22;6489;48.508;9.206;2023-02-20T03:53:50;18.80;99.90
12845;DHT22;6489;48.508;9.206;2023-02-20T03:57:15;18.90;99.90
12845;DHT22;6489;48.508;9.206;2023-02-20T04:00:41;18.80;99.90
12845;DHT22;6489;48.508;9.206;2023-02-20T04:04:06;18.80;99.90
12845;DHT22;6489;48.508;9.206;2023-02-20T04:07:34;18.80;99.90
12845;DHT22;6489;48.508;9.206;2023-02-20T04:11:00;18.80;99.90
12845;DHT22;6489;48.508;9.206;2023-02-20T04:14:25;18.80;99.90
12845;DHT22;6489;48.508;9.206;2023-02-20T04:17:50;18.80;99.90
12845;DHT22;6489;48.508;9.206;2023-02-20T04:21:19;18.80;99.90
12845;DHT22;6489;48.508;9.206;2023-02-20T04:24:43;18.80;99.90
12845;DHT22;6489;48.508;9.206;2023-02-20T04:28:08;18.80;99.90
12845;DHT22;6489;48.508;9.206;2023-02-20T04:31:31;18.80;99.90
12845;DHT22;6489;48.508;9.206;2023-02-20T04:34:54;18.80;99.90
12845;DHT22;6489;48.508;9.206;2023-02-20T04:38:18;18.80;99.90
12845;DHT22;6489;48.508;9.206;2023-02-20T04:41:40;18.80;99.90
12845;DHT22;6489;48.508;9.206;2023-02-20T04:45:02;18.80;99.90
12845;DHT22;6489;48.508;9.206;2023-02-20T04:48:23;18.80;99.90
12845;DHT22;6489;48.508;9.206;2023-02-20T04:51:45;18.80;99.90
12845;DHT22;6489;48.508;9.206;2023-02-20T04:55:08;18.80;99.90
12845;DHT22;6489;48.508;9.206;2023-02-20T04:58:30;18.80;99.90
12845;DHT22;6489;48.508;9.206;2023-02-20T05:01:56;18.80;99.90
12845;DHT22;6489;48.508;9.206;2023-02-20T05:05:21;18.80;99.90
12845;DHT22;6489;48.508;9.206;2023-02-20T05:08:43;18.80;99.90
12845;DHT22;6489;48.508;9.206;2023-02-20T05:12:07;18.80;99.90
12845;DHT22;6489;48.508;9.206;2023-02-20T05:15:30;18.80;99.90
12845;DHT22;6489;48.508;9.206;2023-02-20T05:18:52;18.80;99.90
12845;DHT22;6489;48.508;9.206;2023-02-20T05:22:14;18.80;99.90
12845;DHT22;6489;48.508;9.206;2023-02-20T05:25:42;18.80;99.90
12845;DHT22;6489;48.508;9.206;2023-02-20T05:29:06;18.70;99.90
12845;DHT22;6489;48.508;9.206;2023-02-20T05:32:30;18.70;99.90
12845;DHT22;6489;48.508;9.206;2023-02-20T05:35:51;18.70;99.90
12845;DHT22;6489;48.508;9.206;2023-02-20T05:39:13;18.70;99.90
12845;DHT22;6489;48.508;9.206;2023-02-20T05:42:35;18.70;99.90
12845;DHT22;6489;48.508;9.206;2023-02-20T05:45:58;18.70;99.90
12845;DHT22;6489;48.508;9.206;2023-02-20T05:49:20;18.60;99.90
12845;DHT22;6489;48.508;9.206;2023-02-20T05:52:42;18.60;99.90
12845;DHT22;6489;48.508;9.206;2023-02-20T05:56:05;18.60;99.90
12845;DHT22;6489;48.508;9.206;2023-02-20T05:59:26;18.60;99.90
12845;DHT22;6489;48.508;9.206;2023-02-20T06:02:50;18.60;99.90
12845;DHT22;6489;48.508;9.206;2023-02-20T06:06:12;18.60;99.90
12845;DHT22;6489;48.508;9.206;2023-02-20T06:09:34;18.60;99.90
12845;DHT22;6489;48.508;9.206;2023-02-20T06:12:56;18.60;99.90
12845;DHT22;6489;48.508;9.206;2023-02-20T06:16:22;18.60;99.90
12845;DHT22;6489;48.508;9.206;2023-02-20T06:19:45;18.60;99.90
12845;DHT22;6489;48.508;9.206;2023-02-20T06:23:07;18.60;99.90
12845;DHT22;6489;48.508;9.206;2023-02-20T06:26:29;18.60;99.90
12845;DHT22;6489;48.508;9.206;2023-02-20T06:29:51;18.60;99.90
12845;DHT22;6489;48.508;9.206;2023-02-20T06:33:13;18.60;99.90
12845;DHT22;6489;48.508;9.206;2023-02-20T06:36:37;18.50;99.90
12845;DHT22;6489;48.508;9.206;2023-02-20T06:40:00;18.50;99.90
12845;DHT22;6489;48.508;9.206;2023-02-20T06:43:22;18.60;99.90
12845;DHT22;6489;48.508;9.206;2023-02-20T06:46:44;18.60;99.90
12845;DHT22;6489;48.508;9.206;2023-02-20T06:50:06;18.60;99.90
12845;DHT22;6489;48.508;9.206;2023-02-20T06:53:29;18.60;99.90
12845;DHT22;6489;48.508;9.206;2023-02-20T06:56:51;18.60;99.90
12845;DHT22;6489;48.508;9.206;2023-02-20T07:00:14;18.60;99.90
12845;DHT22;6489;48.508;9.206;2023-02-20T07:03:36;18.60;99.90
12845;DHT22;6489;48.508;9.206;2023-02-20T07:06:58;18.60;99.90
12845;DHT22;6489;48.508;9.206;2023-02-20T07:10:23;18.60;99.90
12845;DHT22;6489;48.508;9.206;2023-02-20T07:13:45;18.60;99.90
12845;DHT22;6489;48.508;9.206;2023-02-20T07:17:06;18.70;99.90
12845;DHT22;6489;48.508;9.206;2023-02-20T07:20:28;18.70;99.90
12845;DHT22;6489;48.508;9.206;2023-02-20T07:23:50;18.80;99.90
12845;DHT22;6489;48.508;9.206;2023-02-20T07:27:14;18.80;99.90
12845;DHT22;6489;48.508;9.206;2023-02-20T07:30:36;18.70;99.90
12845;DHT22;6489;48.508;9.206;2023-02-20T07:33:58;18.70;99.90
12845;DHT22;6489;48.508;9.206;2023-02-20T07:37:20;18.80;99.90
12845;DHT22;6489;48.508;9.206;2023-02-20T07:40:42;18.70;99.90
12845;DHT22;6489;48.508;9.206;2023-02-20T07:44:05;18.80;99.90
12845;DHT22;6489;48.508;9.206;2023-02-20T07:47:27;18.70;99.90
12845;DHT22;6489;48.508;9.206;2023-02-20T07:50:49;18.70;99.90
12845;DHT22;6489;48.508;9.206;2023-02-20T07:54:12;18.70;99.90
12845;DHT22;6489;48.508;9.206;2023-02-20T07:57:35;18.70;99.90
12845;DHT22;6489;48.508;9.206;2023-02-20T08:00:58;18.70;99.90
12845;DHT22;6489;48.508;9.206;2023-02-20T08:04:20;18.70;99.90
12845;DHT22;6489;48.508;9.206;2023-02-20T08:07:45;18.70;99.90
12845;DHT22;6489;48.508;9.206;2023-02-20T08:11:07;18.70;99.90
12845;DHT22;6489;48.508;9.206;2023-02-20T08:14:29;18.70;99.90
12845;DHT22;6489;48.508;9.206;2023-02-20T08:17:52;18.70;99.90
12845;DHT22;6489;48.508;9.206;2023-02-20T08:21:14;18.80;99.90
12845;DHT22;6489;48.508;9.206;2023-02-20T08:24:38;18.80;99.90
12845;DHT22;6489;48.508;9.206;2023-02-20T08:28:00;18.90;99.90
12845;DHT22;6489;48.508;9.206;2023-02-20T08:31:22;18.90;99.90
12845;DHT22;6489;48.508;9.206;2023-02-20T08:34:45;18.90;99.90
12845;DHT22;6489;48.508;9.206;2023-02-20T08:38:22;18.90;99.90
12845;DHT22;6489;48.508;9.206;2023-02-20T08:41:45;18.90;99.90
12845;DHT22;6489;48.508;9.206;2023-02-20T08:45:08;18.90;99.90
12845;DHT22;6489;48.508;9.206;2023-02-20T08:48:30;18.90;99.90
12845;DHT22;6489;48.508;9.206;2023-02-20T08:51:55;18.90;99.90
12845;DHT22;6489;48.508;9.206;2023-02-20T08:55:17;19.00;99.90
12845;DHT22;6489;48.508;9.206;2023-02-20T08:58:40;19.00;99.90
12845;DHT22;6489;48.508;9.206;2023-02-20T09:02:01;19.00;99.90
12845;DHT22;6489;48.508;9.206;2023-02-20T09:05:23;19.00;99.90
12845;DHT22;6489;48.508;9.206;2023-02-20T09:08:47;19.00;99.90
12845;DHT22;6489;48.508;9.206;2023-02-20T09:12:09;19.00;99.90
12845;DHT22;6489;48.508;9.206;2023-02-20T09:15:31;19.10;99.90
12845;DHT22;6489;48.508;9.206;2023-02-20T09:18:58;19.10;99.90
12845;DHT22;6489;48.508;9.206;2023-02-20T09:22:21;19.10;99.90
12845;DHT22;6489;48.508;9.206;2023-02-20T09:25:45;19.10;99.90
12845;DHT22;6489;48.508;9.206;2023-02-20T09:29:08;19.20;99.90
12845;DHT22;6489;48.508;9.206;2023-02-20T09:32:30;19.10;99.90
12845;DHT22;6489;48.508;9.206;2023-02-20T09:35:52;19.20;99.90
12845;DHT22;6489;48.508;9.206;2023-02-20T09:39:15;19.20;99.90
12845;DHT22;6489;48.508;9.206;2023-02-20T09:42:45;19.20;99.90
12845;DHT22;6489;48.508;9.206;2023-02-20T09:46:13;19.20;99.90
12845;DHT22;6489;48.508;9.206;2023-02-20T09:49:36;19.30;99.90
12845;DHT22;6489;48.508;9.206;2023-02-20T09:53:04;19.30;99.90
12845;DHT22;6489;48.508;9.206;2023-02-20T09:56:32;19.40;99.90
12845;DHT22;6489;48.508;9.206;2023-02-20T10:00:02;19.40;99.90
12845;DHT22;6489;48.508;9.206;2023-02-20T10:03:30;19.50;99.90
12845;DHT22;6489;48.508;9.206;2023-02-20T10:07:00;19.50;99.90
12845;DHT22;6489;48.508;9.206;2023-02-20T10:10:27;19.50;99.90
12845;DHT22;6489;48.508;9.206;2023-02-20T10:13:57;19.50;99.90
12845;DHT22;6489;48.508;9.206;2023-02-20T10:17:31;19.60;99.90
12845;DHT22;6489;48.508;9.206;2023-02-20T10:20:59;19.70;99.90
12845;DHT22;6489;48.508;9.206;2023-02-20T10:24:35;19.80;99.90
12845;DHT22;6489;48.508;9.206;2023-02-20T10:28:05;19.80;99.90
12845;DHT22;6489;48.508;9.206;2023-02-20T10:31:34;19.90;99.90
12845;DHT22;6489;48.508;9.206;2023-02-20T10:35:02;20.00;99.90
12845;DHT22;6489;48.508;9.206;2023-02-20T10:38:27;19.90;99.90
12845;DHT22;6489;48.508;9.206;2023-02-20T10:41:53;19.90;99.90
12845;DHT22;6489;48.508;9.206;2023-02-20T10:45:25;19.90;99.90
12845;DHT22;6489;48.508;9.206;2023-02-20T10:48:51;19.90;99.90
12845;DHT22;6489;48.508;9.206;2023-02-20T10:52:19;19.90;99.90
12845;DHT22;6489;48.508;9.206;2023-02-20T10:55:50;19.90;99.90
12845;DHT22;6489;48.508;9.206;2023-02-20T10:59:18;19.90;99.90
12845;DHT22;6489;48.508;9.206;2023-02-20T11:02:47;19.80;99.90
12845;DHT22;6489;48.508;9.206;2023-02-20T11:06:15;19.90;99.90
12845;DHT22;6489;48.508;9.206;2023-02-20T11:09:39;19.90;99.90
12845;DHT22;6489;48.508;9.206;2023-02-20T11:13:01;19.90;99.90
12845;DHT22;6489;48.508;9.206;2023-02-20T11:16:26;20.00;99.90
12845;DHT22;6489;48.508;9.206;2023-02-20T11:19:50;20.00;99.90
12845;DHT22;6489;48.508;9.206;2023-02-20T11:23:38;20.00;99.90
12845;DHT22;6489;48.508;9.206;2023-02-20T11:27:09;20.00;99.90
12845;DHT22;6489;48.508;9.206;2023-02-20T11:30:34;20.10;99.90
12845;DHT22;6489;48.508;9.206;2023-02-20T11:33:56;20.10;99.90
12845;DHT22;6489;48.508;9.206;2023-02-20T11:37:18;20.10;99.90
12845;DHT22;6489;48.508;9.206;2023-02-20T11:40:40;20.10;99.90
12845;DHT22;6489;48.508;9.206;2023-02-20T11:44:22;20.20;99.90
12845;DHT22;6489;48.508;9.206;2023-02-20T11:47:45;20.30;99.90
12845;DHT22;6489;48.508;9.206;2023-02-20T11:51:29;20.20;99.90
12845;DHT22;6489;48.508;9.206;2023-02-20T11:55:09;20.30;99.90
12845;DHT22;6489;48.508;9.206;2023-02-20T11:58:32;20.20;99.90
12845;DHT22;6489;48.508;9.206;2023-02-20T12:02:10;20.30;99.90
12845;DHT22;6489;48.508;9.206;2023-02-20T12:05:37;20.30;99.90
12845;DHT22;6489;48.508;9.206;2023-02-20T12:09:01;20.30;99.90
12845;DHT22;6489;48.508;9.206;2023-02-20T12:12:26;20.40;99.90
12845;DHT22;6489;48.508;9.206;2023-02-20T12:15:54;20.50;99.90
12845;DHT22;6489;48.508;9.206;2023-02-20T12:19:27;20.60;99.90
12845;DHT22;6489;48.508;9.206;2023-02-20T12:26:39;20.70;99.90
12845;DHT22;6489;48.508;9.206;2023-02-20T12:30:19;20.70;99.90
12845;DHT22;6489;48.508;9.206;2023-02-20T12:33:53;20.70;99.90
12845;DHT22;6489;48.508;9.206;2023-02-20T12:37:26;20.80;99.90
12845;DHT22;6489;48.508;9.206;2023-02-20T12:41:13;20.80;99.90
12845;DHT22;6489;48.508;9.206;2023-02-20T12:45:15;20.80;99.90
12845;DHT22;6489;48.508;9.206;2023-02-20T12:48:45;20.80;99.90
12845;DHT22;6489;48.508;9.206;2023-02-20T12:52:29;20.80;99.90
12845;DHT22;6489;48.508;9.206;2023-02-20T12:56:03;20.90;99.90
12845;DHT22;6489;48.508;9.206;2023-02-20T12:59:30;20.80;99.90
12845;DHT22;6489;48.508;9.206;2023-02-20T13:02:57;20.90;99.90
12845;DHT22;6489;48.508;9.206;2023-02-20T13:06:25;21.00;99.90
12845;DHT22;6489;48.508;9.206;2023-02-20T13:13:19;21.10;99.90
12845;DHT22;6489;48.508;9.206;2023-02-20T13:16:45;21.20;99.90
12845;DHT22;6489;48.508;9.206;2023-02-20T13:20:16;21.30;99.90
12845;DHT22;6489;48.508;9.206;2023-02-20T13:23:39;21.30;99.90
12845;DHT22;6489;48.508;9.206;2023-02-20T13:27:04;21.30;99.90
12845;DHT22;6489;48.508;9.206;2023-02-20T13:30:27;21.30;99.90
12845;DHT22;6489;48.508;9.206;2023-02-20T13:33:51;21.40;99.90
12845;DHT22;6489;48.508;9.206;2023-02-20T13:37:50;21.50;99.90
12845;DHT22;6489;48.508;9.206;2023-02-20T13:41:13;21.60;99.90
12845;DHT22;6489;48.508;9.206;2023-02-20T13:44:43;21.70;99.90
12845;DHT22;6489;48.508;9.206;2023-02-20T13:48:38;21.80;99.90
12845;DHT22;6489;48.508;9.206;2023-02-20T13:52:01;21.80;99.90
12845;DHT22;6489;48.508;9.206;2023-02-20T13:55:43;21.80;99.90
12845;DHT22;6489;48.508;9.206;2023-02-20T13:59:09;21.80;99.90
12845;DHT22;6489;48.508;9.206;2023-02-20T14:02:40;21.90;99.90
12845;DHT22;6489;48.508;9.206;2023-02-20T14:06:05;22.00;99.90
12845;DHT22;6489;48.508;9.206;2023-02-20T14:09:28;22.00;99.90
12845;DHT22;6489;48.508;9.206;2023-02-20T14:12:58;22.00;99.90
12845;DHT22;6489;48.508;9.206;2023-02-20T14:16:28;22.10;99.90
12845;DHT22;6489;48.508;9.206;2023-02-20T14:19:56;22.20;99.90
12845;DHT22;6489;48.508;9.206;2023-02-20T14:23:23;22.20;99.90
12845;DHT22;6489;48.508;9.206;2023-02-20T14:26:46;22.10;99.90
12845;DHT22;6489;48.508;9.206;2023-02-20T14:30:12;22.20;99.90
12845;DHT22;6489;48.508;9.206;2023-02-20T14:33:34;22.20;99.90
12845;DHT22;6489;48.508;9.206;2023-02-20T14:37:04;22.20;99.90
12845;DHT22;6489;48.508;9.206;2023-02-20T14:40:36;22.30;99.90
12845;DHT22;6489;48.508;9.206;2023-02-20T14:44:00;22.40;99.90
12845;DHT22;6489;48.508;9.206;2023-02-20T14:47:22;22.30;99.90
12845;DHT22;6489;48.508;9.206;2023-02-20T14:50:44;22.30;99.90
12845;DHT22;6489;48.508;9.206;2023-02-20T14:54:17;22.30;99.90
12845;DHT22;6489;48.508;9.206;2023-02-20T14:57:39;22.20;99.90
12845;DHT22;6489;48.508;9.206;2023-02-20T15:01:01;22.20;99.90
12845;DHT22;6489;48.508;9.206;2023-02-20T15:04:34;22.20;99.90
12845;DHT22;6489;48.508;9.206;2023-02-20T15:08:01;22.20;99.90
12845;DHT22;6489;48.508;9.206;2023-02-20T15:11:25;22.20;99.90
12845;DHT22;6489;48.508;9.206;2023-02-20T15:14:55;22.10;99.90
12845;DHT22;6489;48.508;9.206;2023-02-20T15:18:31;22.00;99.90
12845;DHT22;6489;48.508;9.206;2023-02-20T15:21:57;22.00;99.90
12845;DHT22;6489;48.508;9.206;2023-02-20T15:25:27;22.00;99.90
12845;DHT22;6489;48.508;9.206;2023-02-20T15:29:09;21.90;99.90
12845;DHT22;6489;48.508;9.206;2023-02-20T15:32:32;21.80;99.90
12845;DHT22;6489;48.508;9.206;2023-02-20T15:35:54;21.80;99.90
12845;DHT22;6489;48.508;9.206;2023-02-20T15:39:16;21.70;99.90
12845;DHT22;6489;48.508;9.206;2023-02-20T15:42:38;21.70;99.90
12845;DHT22;6489;48.508;9.206;2023-02-20T15:46:02;21.60;99.90
12845;DHT22;6489;48.508;9.206;2023-02-20T15:49:24;21.60;99.90
12845;DHT22;6489;48.508;9.206;2023-02-20T15:52:46;21.50;99.90
12845;DHT22;6489;48.508;9.206;2023-02-20T15:56:10;21.50;99.90
12845;DHT22;6489;48.508;9.206;2023-02-20T15:59:32;21.50;99.90
12845;DHT22;6489;48.508;9.206;2023-02-20T16:02:55;21.50;99.90
12845;DHT22;6489;48.508;9.206;2023-02-20T16:06:17;21.30;99.90
12845;DHT22;6489;48.508;9.206;2023-02-20T16:09:40;21.20;99.90
12845;DHT22;6489;48.508;9.206;2023-02-20T16:13:02;21.00;99.90
12845;DHT22;6489;48.508;9.206;2023-02-20T16:16:30;21.00;99.90
12845;DHT22;6489;48.508;9.206;2023-02-20T16:19:54;20.90;99.90
12845;DHT22;6489;48.508;9.206;2023-02-20T16:23:16;20.80;99.90
12845;DHT22;6489;48.508;9.206;2023-02-20T16:26:40;20.70;99.90
12845;DHT22;6489;48.508;9.206;2023-02-20T16:30:04;20.60;99.90
12845;DHT22;6489;48.508;9.206;2023-02-20T16:33:27;20.60;99.90
12845;DHT22;6489;48.508;9.206;2023-02-20T16:36:51;20.50;99.90
12845;DHT22;6489;48.508;9.206;2023-02-20T16:40:14;20.40;99.90
12845;DHT22;6489;48.508;9.206;2023-02-20T16:43:36;20.30;99.90
12845;DHT22;6489;48.508;9.206;2023-02-20T16:46:58;20.20;99.90
12845;DHT22;6489;48.508;9.206;2023-02-20T16:50:22;20.20;99.90
12845;DHT22;6489;48.508;9.206;2023-02-20T16:53:46;20.20;99.90
12845;DHT22;6489;48.508;9.206;2023-02-20T16:57:08;20.20;99.90
12845;DHT22;6489;48.508;9.206;2023-02-20T17:00:33;20.50;99.90
12845;DHT22;6489;48.508;9.206;2023-02-20T17:51:04;20.40;99.90
12845;DHT22;6489;48.508;9.206;2023-02-20T17:54:28;20.40;99.90
12845;DHT22;6489;48.508;9.206;2023-02-20T17:57:51;20.40;99.90
12845;DHT22;6489;48.508;9.206;2023-02-20T18:01:13;20.40;99.90
12845;DHT22;6489;48.508;9.206;2023-02-20T18:04:37;20.40;99.90
12845;DHT22;6489;48.508;9.206;2023-02-20T18:08:00;20.40;99.90
12845;DHT22;6489;48.508;9.206;2023-02-20T18:11:22;20.40;99.90
12845;DHT22;6489;48.508;9.206;2023-02-20T18:14:44;20.40;99.90
12845;DHT22;6489;48.508;9.206;2023-02-20T18:18:06;20.30;99.90
12845;DHT22;6489;48.508;9.206;2023-02-20T18:21:29;20.30;99.90
12845;DHT22;6489;48.508;9.206;2023-02-20T18:24:53;20.30;99.90
12845;DHT22;6489;48.508;9.206;2023-02-20T18:28:14;20.30;99.90
12845;DHT22;6489;48.508;9.206;2023-02-20T18:31:36;20.30;99.90
12845;DHT22;6489;48.508;9.206;2023-02-20T18:34:58;20.30;99.90
12845;DHT22;6489;48.508;9.206;2023-02-20T18:38:20;20.30;99.90
12845;DHT22;6489;48.508;9.206;2023-02-20T18:41:49;20.30;99.90
12845;DHT22;6489;48.508;9.206;2023-02-20T18:45:11;20.30;99.90
12845;DHT22;6489;48.508;9.206;2023-02-20T18:48:33;20.20;99.90
12845;DHT22;6489;48.508;9.206;2023-02-20T18:51:55;20.20;99.90
12845;DHT22;6489;48.508;9.206;2023-02-20T18:55:17;20.20;99.90
12845;DHT22;6489;48.508;9.206;2023-02-20T18:58:41;20.20;99.90
12845;DHT22;6489;48.508;9.206;2023-02-20T19:02:03;20.20;99.90
12845;DHT22;6489;48.508;9.206;2023-02-20T19:05:25;20.20;99.90
12845;DHT22;6489;48.508;9.206;2023-02-20T19:08:47;20.20;99.90
12845;DHT22;6489;48.508;9.206;2023-02-20T19:12:09;20.20;99.90
12845;DHT22;6489;48.508;9.206;2023-02-20T19:15:33;20.20;99.90
12845;DHT22;6489;48.508;9.206;2023-02-20T19:18:55;20.10;99.90
12845;DHT22;6489;48.508;9.206;2023-02-20T19:22:17;20.20;99.90
12845;DHT22;6489;48.508;9.206;2023-02-20T19:25:39;20.20;99.90
12845;DHT22;6489;48.508;9.206;2023-02-20T19:29:00;20.20;99.90
12845;DHT22;6489;48.508;9.206;2023-02-20T19:32:24;20.20;99.90
12845;DHT22;6489;48.508;9.206;2023-02-20T19:35:46;20.20;99.90
12845;DHT22;6489;48.508;9.206;2023-02-20T19:39:08;20.10;99.90
12845;DHT22;6489;48.508;9.206;2023-02-20T19:42:30;20.20;99.90
12845;DHT22;6489;48.508;9.206;2023-02-20T19:45:52;20.20;99.90
12845;DHT22;6489;48.508;9.206;2023-02-20T19:49:16;20.20;99.90
12845;DHT22;6489;48.508;9.206;2023-02-20T19:52:40;20.10;99.90
12845;DHT22;6489;48.508;9.206;2023-02-20T19:56:02;20.10;99.90
12845;DHT22;6489;48.508;9.206;2023-02-20T19:59:24;20.10;99.90
12845;DHT22;6489;48.508;9.206;2023-02-20T20:02:46;20.20;99.90
12845;DHT22;6489;48.508;9.206;2023-02-20T20:06:10;20.20;99.90
12845;DHT22;6489;48.508;9.206;2023-02-20T20:09:32;20.10;99.90
12845;DHT22;6489;48.508;9.206;2023-02-20T20:12:54;20.10;99.90
12845;DHT22;6489;48.508;9.206;2023-02-20T20:16:16;20.20;99.90
12845;DHT22;6489;48.508;9.206;2023-02-20T20:19:38;20.10;99.90
12845;DHT22;6489;48.508;9.206;2023-02-20T20:23:03;20.10;99.90
12845;DHT22;6489;48.508;9.206;2023-02-20T20:26:26;20.10;99.90
12845;DHT22;6489;48.508;9.206;2023-02-20T20:29:49;20.10;99.90
12845;DHT22;6489;48.508;9.206;2023-02-20T20:33:10;20.10;99.90
12845;DHT22;6489;48.508;9.206;2023-02-20T20:36:33;20.10;99.90
12845;DHT22;6489;48.508;9.206;2023-02-20T20:39:57;20.10;99.90
12845;DHT22;6489;48.508;9.206;2023-02-20T20:43:20;20.10;99.90
12845;DHT22;6489;48.508;9.206;2023-02-20T20:46:41;20.10;99.90
12845;DHT22;6489;48.508;9.206;2023-02-20T20:50:04;20.10;99.90
12845;DHT22;6489;48.508;9.206;2023-02-20T20:53:26;20.10;99.90
12845;DHT22;6489;48.508;9.206;2023-02-20T20:56:50;20.10;99.90
12845;DHT22;6489;48.508;9.206;2023-02-20T21:00:19;20.10;99.90
12845;DHT22;6489;48.508;9.206;2023-02-20T21:03:41;20.10;99.90
12845;DHT22;6489;48.508;9.206;2023-02-20T21:07:03;20.10;99.90
12845;DHT22;6489;48.508;9.206;2023-02-20T21:10:25;20.10;99.90
12845;DHT22;6489;48.508;9.206;2023-02-20T21:13:49;20.10;99.90
12845;DHT22;6489;48.508;9.206;2023-02-20T21:17:11;20.10;99.90
12845;DHT22;6489;48.508;9.206;2023-02-20T21:20:34;20.10;99.90
12845;DHT22;6489;48.508;9.206;2023-02-20T21:23:56;20.10;99.90
12845;DHT22;6489;48.508;9.206;2023-02-20T21:27:17;20.10;99.90
12845;DHT22;6489;48.508;9.206;2023-02-20T21:30:41;20.10;99.90
12845;DHT22;6489;48.508;9.206;2023-02-20T21:34:03;20.00;99.90
12845;DHT22;6489;48.508;9.206;2023-02-20T21:37:25;20.00;99.90
12845;DHT22;6489;48.508;9.206;2023-02-20T21:40:47;19.90;99.90
12845;DHT22;6489;48.508;9.206;2023-02-20T21:44:14;19.90;99.90
12845;DHT22;6489;48.508;9.206;2023-02-20T21:47:48;20.00;99.90
12845;DHT22;6489;48.508;9.206;2023-02-20T21:51:10;20.00;99.90
12845;DHT22;6489;48.508;9.206;2023-02-20T21:54:32;20.00;99.90
12845;DHT22;6489;48.508;9.206;2023-02-20T21:57:54;20.00;99.90
12845;DHT22;6489;48.508;9.206;2023-02-20T22:01:21;20.10;99.90
12845;DHT22;6489;48.508;9.206;2023-02-20T22:04:43;20.10;99.90
12845;DHT22;6489;48.508;9.206;2023-02-20T22:08:04;20.00;99.90
12845;DHT22;6489;48.508;9.206;2023-02-20T22:11:43;20.10;99.90
12845;DHT22;6489;48.508;9.206;2023-02-20T22:15:22;20.00;99.90
12845;DHT22;6489;48.508;9.206;2023-02-20T22:19:02;20.10;99.90
12845;DHT22;6489;48.508;9.206;2023-02-20T22:22:43;20.10;99.90
12845;DHT22;6489;48.508;9.206;2023-02-20T22:26:22;20.10;99.90
12845;DHT22;6489;48.508;9.206;2023-02-20T22:30:01;20.10;99.90
12845;DHT22;6489;48.508;9.206;2023-02-20T22:37:21;20.10;99.90
12845;DHT22;6489;48.508;9.206;2023-02-20T22:41:02;20.10;99.90
12845;DHT22;6489;48.508;9.206;2023-02-20T22:44:41;20.10;99.90
12845;DHT22;6489;48.508;9.206;2023-02-20T22:48:20;20.00;99.90
12845;DHT22;6489;48.508;9.206;2023-02-20T22:51:59;20.10;99.90
12845;DHT22;6489;48.508;9.206;2023-02-20T22:55:39;20.10;99.90
12845;DHT22;6489;48.508;9.206;2023-02-20T22:59:19;20.10;99.90
12845;DHT22;6489;48.508;9.206;2023-02-20T23:02:59;20.10;99.90